Time;durP1;ratioP1;P1;durP2;ratioP2;P2;SDS_P1;SDS_P2;PMS_P1;PMS_P2;Temp;Humidity;BMP_temperature;BMP_pressure;BME280_temperature;BME280_humidity;BME280_pressure;Samples;Min_cycle;Max_cycle;Signal;HPM_P1;HPM_P2
2021/10/26 00:01:11;;;;;;;15.20;8.32;;;;;;;5.07;94.30;100526.59;5012444;28;20099;-64
2021/10/26 00:03:57;;;;;;;17.98;8.77;;;;;;;4.97;94.29;100523.69;5006359;28;20516;-64
2021/10/26 00:06:42;;;;;;;14.75;8.25;;;;;;;5.05;94.91;100525.84;5000375;28;20124;-65
2021/10/26 00:09:28;;;;;;;11.55;7.82;;;;;;;4.97;94.61;100532.53;5008323;28;20092;-65
2021/10/26 00:12:14;;;;;;;14.93;8.10;;;;;;;5.09;95.08;100530.88;5009467;28;20100;-64
2021/10/26 00:14:59;;;;;;;15.73;8.67;;;;;;;5.02;94.19;100523.41;5006956;28;20102;-65
2021/10/26 00:17:44;;;;;;;15.10;8.50;;;;;;;5.24;93.57;100523.66;5005429;28;20056;-65
2021/10/26 00:20:30;;;;;;;17.23;8.57;;;;;;;5.17;93.27;100528.53;5008382;28;20057;-65
2021/10/26 00:23:15;;;;;;;18.80;9.15;;;;;;;5.02;94.07;100529.56;5011174;28;20507;-63
2021/10/26 00:26:03;;;;;;;15.35;8.57;;;;;;;5.30;93.42;100523.25;5008821;28;20065;-64
2021/10/26 00:28:49;;;;;;;14.23;8.75;;;;;;;5.20;92.83;100524.81;5003888;28;20191;-62
2021/10/26 00:31:34;;;;;;;16.20;8.27;;;;;;;5.33;92.48;100512.41;5000551;28;20058;-63
2021/10/26 00:34:19;;;;;;;15.87;8.30;;;;;;;5.31;92.27;100519.63;4997825;28;20104;-64
2021/10/26 00:37:04;;;;;;;13.57;8.35;;;;;;;5.26;92.30;100511.97;5004823;28;20571;-64
2021/10/26 00:39:50;;;;;;;16.10;8.13;;;;;;;5.13;93.28;100508.41;5009529;28;20064;-64
2021/10/26 00:42:36;;;;;;;12.82;8.05;;;;;;;5.08;93.77;100512.34;5009184;28;20519;-63
2021/10/26 00:45:22;;;;;;;19.02;8.45;;;;;;;5.12;93.59;100514.69;5003902;28;20218;-64
2021/10/26 00:48:08;;;;;;;15.98;8.23;;;;;;;5.05;93.82;100513.41;5011192;28;20414;-64
2021/10/26 00:50:54;;;;;;;18.07;9.43;;;;;;;5.07;93.72;100511.47;5007986;28;20072;-63
2021/10/26 00:53:39;;;;;;;15.35;8.20;;;;;;;5.21;93.02;100499.94;5004486;28;20427;-64
2021/10/26 00:56:24;;;;;;;13.50;8.00;;;;;;;5.30;92.27;100512.59;5010418;28;20165;-65
2021/10/26 00:59:10;;;;;;;16.90;8.18;;;;;;;5.26;92.72;100505.78;5002063;28;20065;-63
2021/10/26 01:01:56;;;;;;;17.95;8.80;;;;;;;5.21;92.54;100502.59;5002813;28;20120;-63
2021/10/26 01:04:40;;;;;;;17.40;8.75;;;;;;;5.21;92.34;100507.91;5006820;28;20069;-63
2021/10/26 01:07:26;;;;;;;15.10;8.48;;;;;;;5.29;92.20;100509.09;5004654;28;20056;-63
2021/10/26 01:10:11;;;;;;;13.27;8.02;;;;;;;5.07;92.83;100510.63;5002956;28;20196;-63
2021/10/26 01:12:57;;;;;;;20.27;8.30;;;;;;;4.97;92.99;100508.59;5007902;28;20057;-63
2021/10/26 01:15:43;;;;;;;12.33;7.17;;;;;;;5.04;93.43;100502.88;5001033;28;20123;-64
2021/10/26 01:18:29;;;;;;;16.15;7.75;;;;;;;4.96;93.58;100503.34;5004638;28;20511;-64
2021/10/26 01:21:16;;;;;;;14.63;8.18;;;;;;;4.85;94.12;100506.72;5007452;28;20117;-62
2021/10/26 01:24:01;;;;;;;17.42;8.85;;;;;;;4.86;94.27;100510.28;5009940;28;20184;-64
2021/10/26 01:26:45;;;;;;;14.73;7.47;;;;;;;4.98;93.78;100510.31;5007170;28;20079;-65
2021/10/26 01:29:30;;;;;;;12.02;7.32;;;;;;;4.98;93.29;100515.63;5013195;28;20060;-63
2021/10/26 01:32:17;;;;;;;15.70;7.40;;;;;;;4.95;93.55;100513.16;5007378;28;20061;-65
2021/10/26 01:35:04;;;;;;;12.95;7.72;;;;;;;4.93;94.11;100516.88;5011315;28;20053;-64
2021/10/26 01:37:50;;;;;;;13.80;8.40;;;;;;;5.06;92.92;100519.56;5004120;28;20053;-66
2021/10/26 01:40:36;;;;;;;14.77;7.80;;;;;;;4.95;93.52;100518.47;5008610;28;20524;-63
2021/10/26 01:43:22;;;;;;;14.68;8.07;;;;;;;4.89;93.51;100508.25;5010172;28;20061;-63
2021/10/26 01:46:07;;;;;;;18.83;7.77;;;;;;;4.85;93.67;100506.72;5001964;28;20084;-63
2021/10/26 01:48:51;;;;;;;15.93;8.35;;;;;;;4.94;93.00;100506.13;5008844;28;20547;-64
2021/10/26 01:51:37;;;;;;;13.45;8.10;;;;;;;4.90;93.28;100504.63;5007697;28;20076;-64
2021/10/26 01:54:23;;;;;;;13.25;6.78;;;;;;;4.89;93.83;100512.72;5005606;28;20064;-65
2021/10/26 01:57:09;;;;;;;18.20;7.90;;;;;;;5.04;93.55;100513.50;5005837;28;20123;-62
2021/10/26 01:59:55;;;;;;;13.03;6.90;;;;;;;5.12;92.73;100514.69;5002287;28;20053;-64
2021/10/26 02:02:41;;;;;;;;;;;;;;;5.25;91.98;100509.41;4999267;28;20145;-63
2021/10/26 02:05:26;;;;;;;14.32;7.35;;;;;;;5.37;91.49;100503.25;5002878;28;20019;-64
2021/10/26 02:08:11;;;;;;;9.63;6.68;;;;;;;5.43;91.59;100504.63;5011166;28;20057;-64
2021/10/26 02:10:58;;;;;;;10.73;5.93;;;;;;;5.64;89.99;100500.50;5007379;28;20061;-63
2021/10/26 02:13:43;;;;;;;9.52;6.07;;;;;;;5.59;90.64;100497.31;5008230;28;20061;-65
2021/10/26 02:16:28;;;;;;;9.93;6.38;;;;;;;5.65;90.84;100501.34;4997748;28;20522;-64
2021/10/26 02:19:13;;;;;;;9.82;6.90;;;;;;;5.71;90.52;100506.25;5005879;28;20140;-63
2021/10/26 02:21:58;;;;;;;10.88;6.30;;;;;;;5.79;90.39;100503.88;4998268;28;20280;-63
2021/10/26 02:24:44;;;;;;;13.57;6.70;;;;;;;6.09;88.41;100507.09;5010614;28;20067;-64
2021/10/26 02:27:31;;;;;;;14.18;6.35;;;;;;;6.10;88.40;100508.81;5009257;28;20370;-65
2021/10/26 02:30:16;;;;;;;10.27;5.28;;;;;;;6.09;88.89;100500.91;5010390;28;20052;-64
2021/10/26 02:33:01;;;;;;;12.35;6.53;;;;;;;6.03;89.04;100507.53;5000473;28;20050;-63
2021/10/26 02:35:46;;;;;;;13.70;6.82;;;;;;;6.00;89.57;100507.75;5002465;28;20296;-64
2021/10/26 02:38:31;;;;;;;18.67;6.40;;;;;;;6.01;90.23;100513.94;5003872;28;20131;-64
2021/10/26 02:41:16;;;;;;;9.82;6.03;;;;;;;6.07;89.56;100508.19;5001304;28;20123;-64
2021/10/26 02:44:02;;;;;;;11.38;6.60;;;;;;;6.08;89.43;100504.53;5004607;28;20061;-63
2021/10/26 02:46:48;;;;;;;15.98;6.82;;;;;;;6.18;88.68;100508.25;5001500;28;20056;-62
2021/10/26 02:49:32;;;;;;;9.55;5.78;;;;;;;6.29;87.99;100508.34;5001653;28;20062;-63
2021/10/26 02:52:18;;;;;;;12.35;7.05;;;;;;;6.41;87.06;100501.28;5003842;28;20052;-63
2021/10/26 02:55:04;;;;;;;13.63;7.13;;;;;;;6.68;85.12;100501.91;5005122;28;20068;-63
2021/10/26 02:57:49;;;;;;;13.52;6.50;;;;;;;6.59;85.27;100499.91;5009030;28;20092;-63
2021/10/26 03:00:35;;;;;;;13.85;7.07;;;;;;;6.54;85.76;100501.22;5006667;28;20112;-63
2021/10/26 03:03:20;;;;;;;11.05;7.07;;;;;;;6.64;85.30;100496.94;5001745;28;20100;-63
2021/10/26 03:06:06;;;;;;;10.18;6.20;;;;;;;6.57;85.75;100495.66;5002680;28;20062;-63
2021/10/26 03:08:51;;;;;;;11.47;6.43;;;;;;;6.65;85.13;100498.63;4997921;28;20048;-64
2021/10/26 03:11:37;;;;;;;11.50;6.63;;;;;;;6.65;85.45;100493.31;5008192;28;20323;-63
2021/10/26 03:14:22;;;;;;;14.23;7.47;;;;;;;6.63;85.95;100496.09;5000220;28;20427;-63
2021/10/26 03:17:09;;;;;;;13.82;6.40;;;;;;;6.69;85.70;100503.63;4996000;28;20061;-65
2021/10/26 03:19:53;;;;;;;13.00;7.13;;;;;;;6.59;86.77;100491.91;5009241;28;20534;-64
2021/10/26 03:22:39;;;;;;;9.68;6.25;;;;;;;6.68;86.42;100496.59;5000015;28;20428;-64
2021/10/26 03:25:24;;;;;;;11.60;7.22;;;;;;;6.86;85.12;100505.03;5004805;28;20068;-63
2021/10/26 03:28:10;;;;;;;14.77;7.70;;;;;;;6.70;86.82;100505.31;5000587;28;20153;-63
2021/10/26 03:30:55;;;;;;;13.43;6.85;;;;;;;6.70;86.81;100507.13;4998720;28;20065;-62
2021/10/26 03:33:41;;;;;;;13.68;6.40;;;;;;;6.70;86.87;100513.31;4994546;28;20068;-62
2021/10/26 03:36:27;;;;;;;12.90;6.55;;;;;;;6.84;86.58;100514.13;5005899;28;20161;-63
2021/10/26 03:39:12;;;;;;;14.27;7.18;;;;;;;6.81;86.62;100506.34;5004727;28;20104;-62
2021/10/26 03:41:57;;;;;;;14.85;7.30;;;;;;;6.97;85.59;100514.91;5008498;28;20060;-62
2021/10/26 03:44:42;;;;;;;14.70;6.95;;;;;;;6.99;85.69;100516.50;5000558;28;20053;-64
2021/10/26 03:47:27;;;;;;;13.40;7.85;;;;;;;6.95;86.02;100511.50;5001346;28;20196;-64
2021/10/26 03:50:15;;;;;;;13.40;6.85;;;;;;;7.15;84.75;100510.88;5009105;28;20184;-64
2021/10/26 03:53:01;;;;;;;11.82;6.70;;;;;;;7.07;85.56;100521.25;5007603;28;20155;-65
2021/10/26 03:55:46;;;;;;;13.45;6.30;;;;;;;6.94;86.63;100517.81;5008092;28;20631;-64
2021/10/26 03:58:32;;;;;;;12.95;6.15;;;;;;;6.92;86.52;100517.06;5001249;28;20061;-64
2021/10/26 04:01:17;;;;;;;13.40;7.70;;;;;;;6.85;87.72;100515.81;5006695;28;20060;-65
2021/10/26 04:04:03;;;;;;;11.47;6.90;;;;;;;6.83;88.30;100517.75;4994712;28;20459;-64
2021/10/26 04:06:50;;;;;;;15.10;8.13;;;;;;;6.82;88.71;100526.72;5004569;28;20316;-63
2021/10/26 04:09:45;;;;;;;10.10;6.80;;;;;;;6.82;89.41;100524.06;5006892;28;20060;-63
2021/10/26 04:12:30;;;;;;;14.70;7.40;;;;;;;6.88;88.79;100523.63;5004755;28;20123;-64
2021/10/26 04:15:15;;;;;;;12.43;7.45;;;;;;;6.89;88.72;100520.81;5004073;28;20060;-64
2021/10/26 04:18:00;;;;;;;13.05;8.10;;;;;;;6.71;90.31;100520.34;5000695;28;20172;-63
2021/10/26 04:20:45;;;;;;;14.87;7.33;;;;;;;6.66;91.03;100517.19;5003444;28;20181;-64
2021/10/26 04:23:32;;;;;;;12.80;7.65;;;;;;;6.67;90.65;100508.22;5005831;28;20056;-63
2021/10/26 04:26:18;;;;;;;12.45;7.85;;;;;;;6.78;90.42;100515.44;5008668;28;20053;-63
2021/10/26 04:29:03;;;;;;;14.57;7.88;;;;;;;6.69;90.52;100510.78;5010351;28;20463;-63
2021/10/26 04:31:48;;;;;;;13.00;7.57;;;;;;;6.68;91.16;100525.06;5010454;28;20188;-63
2021/10/26 04:34:33;;;;;;;13.32;8.43;;;;;;;6.69;91.18;100527.63;5000453;28;20058;-64
2021/10/26 04:37:18;;;;;;;12.93;7.53;;;;;;;6.66;91.39;100524.34;4999809;28;20527;-63
2021/10/26 04:40:05;;;;;;;16.10;7.60;;;;;;;6.60;91.93;100514.94;5005529;28;20087;-64
2021/10/26 04:42:51;;;;;;;12.65;7.68;;;;;;;6.67;91.47;100523.38;5001878;28;20611;-63
2021/10/26 04:45:36;;;;;;;13.73;7.40;;;;;;;6.65;91.00;100522.63;5001508;28;20057;-64
2021/10/26 04:48:24;;;;;;;17.80;8.30;;;;;;;6.64;91.37;100521.78;5007525;28;20305;-64
2021/10/26 04:51:09;;;;;;;12.23;7.70;;;;;;;6.59;92.13;100526.59;5007031;28;20667;-63
2021/10/26 04:53:55;;;;;;;14.13;7.47;;;;;;;6.62;91.71;100518.34;5006145;28;20507;-64
2021/10/26 04:56:41;;;;;;;13.70;8.25;;;;;;;6.72;91.33;100527.38;5006442;28;20060;-64
2021/10/26 04:59:26;;;;;;;;;;;;;;;6.62;92.69;100523.69;5007439;28;20132;-64
2021/10/26 05:02:11;;;;;;;13.70;8.57;;;;;;;6.57;93.24;100533.00;5006011;28;19956;-64
2021/10/26 05:04:56;;;;;;;14.57;8.32;;;;;;;6.57;93.54;100528.53;4997426;28;20550;-64
2021/10/26 05:07:41;;;;;;;16.85;9.10;;;;;;;6.64;93.08;100540.47;5005232;28;20053;-62
2021/10/26 05:10:25;;;;;;;13.60;8.57;;;;;;;6.65;93.28;100539.50;5007633;28;20061;-63
2021/10/26 05:13:12;;;;;;;14.60;7.90;;;;;;;6.66;93.30;100546.53;5004630;28;20077;-64
2021/10/26 05:15:57;;;;;;;;;;;;;;;6.74;92.93;100545.94;5007096;28;20187;-64
2021/10/26 05:18:46;;;;;;;16.00;7.18;;;;;;;6.85;92.02;100542.50;5004642;28;19932;-65
2021/10/26 05:21:31;;;;;;;11.90;7.43;;;;;;;6.86;92.20;100545.03;5005755;28;20064;-66
2021/10/26 05:24:17;;;;;;;21.17;8.55;;;;;;;6.82;92.65;100546.25;5010863;28;20057;-64
2021/10/26 05:27:02;;;;;;;15.52;7.93;;;;;;;6.78;92.67;100547.44;5006197;28;20508;-63
2021/10/26 05:29:48;;;;;;;12.27;7.00;;;;;;;6.72;93.07;100542.53;5008558;28;20558;-64
2021/10/26 05:32:34;;;;;;;12.30;7.72;;;;;;;6.79;92.66;100545.63;5002237;28;20057;-62
2021/10/26 05:35:19;;;;;;;14.10;7.63;;;;;;;6.69;92.91;100548.13;5008014;28;20064;-63
2021/10/26 05:38:04;;;;;;;17.60;8.82;;;;;;;6.73;92.81;100561.09;5000703;28;20081;-62
2021/10/26 05:40:48;;;;;;;12.48;7.50;;;;;;;6.73;93.00;100562.91;5008497;28;20049;-64
2021/10/26 05:43:34;;;;;;;12.55;6.53;;;;;;;6.68;93.05;100560.59;5002833;28;20057;-62
2021/10/26 05:46:20;;;;;;;10.85;6.40;;;;;;;6.63;93.34;100565.44;5005762;28;20459;-63
2021/10/26 05:49:05;;;;;;;17.20;7.85;;;;;;;6.65;93.87;100574.16;5003427;28;20057;-63
2021/10/26 05:51:50;;;;;;;14.48;7.28;;;;;;;6.66;93.86;100573.19;5008353;28;20074;-64
2021/10/26 05:54:35;;;;;;;10.98;6.78;;;;;;;6.66;94.18;100589.19;5003403;28;20189;-64
2021/10/26 05:57:20;;;;;;;15.38;8.00;;;;;;;6.68;94.67;100584.59;5011595;28;20053;-64
2021/10/26 06:00:06;;;;;;;10.50;7.10;;;;;;;6.72;94.62;100580.75;5007176;28;20306;-64
2021/10/26 06:02:52;;;;;;;15.55;7.65;;;;;;;6.72;94.65;100582.56;5000371;28;20519;-63
2021/10/26 06:05:38;;;;;;;12.52;7.60;;;;;;;6.74;94.36;100584.13;4999955;28;20473;-64
2021/10/26 06:08:23;;;;;;;15.70;8.35;;;;;;;6.84;94.09;100588.81;5006542;28;20107;-64
2021/10/26 06:11:11;;;;;;;12.33;7.40;;;;;;;6.87;93.72;100599.28;5005771;28;20447;-64
2021/10/26 06:14:02;;;;;;;12.85;7.75;;;;;;;6.87;93.85;100599.28;5006796;28;20817;-62
2021/10/26 06:16:48;;;;;;;19.05;9.07;;;;;;;6.99;93.72;100604.56;5006393;28;20065;-63
2021/10/26 06:19:34;;;;;;;14.05;7.63;;;;;;;6.99;93.25;100604.56;5003894;28;20061;-61
2021/10/26 06:22:20;;;;;;;16.02;9.80;;;;;;;6.95;93.79;100602.22;5001306;28;20060;-62
2021/10/26 06:25:06;;;;;;;13.95;8.55;;;;;;;6.95;93.55;100607.56;4996724;28;20140;-63
2021/10/26 06:27:51;;;;;;;15.20;9.05;;;;;;;7.05;93.21;100608.59;4998326;28;20048;-61
2021/10/26 06:30:36;;;;;;;13.95;8.27;;;;;;;7.06;92.93;100610.31;4999348;28;20612;-61
2021/10/26 06:33:21;;;;;;;15.48;8.25;;;;;;;7.15;92.68;100604.28;5001016;28;20069;-61
2021/10/26 06:36:07;;;;;;;16.60;9.67;;;;;;;7.24;91.91;100614.28;4995398;28;20427;-62
2021/10/26 06:38:53;;;;;;;12.63;8.25;;;;;;;7.29;91.79;100622.81;5011363;28;20057;-62
2021/10/26 06:41:37;;;;;;;15.27;8.02;;;;;;;7.33;91.83;100616.25;5002521;28;20060;-62
2021/10/26 06:44:23;;;;;;;14.23;8.20;;;;;;;7.41;91.33;100628.19;4996850;28;20068;-62
2021/10/26 06:47:08;;;;;;;12.80;7.78;;;;;;;7.45;91.50;100625.16;4998010;28;20061;-63
2021/10/26 06:49:53;;;;;;;14.63;8.17;;;;;;;7.51;91.23;100624.72;4998588;28;20068;-61
2021/10/26 06:52:40;;;;;;;16.63;7.70;;;;;;;7.55;91.10;100628.84;5000433;28;20060;-62
2021/10/26 06:55:25;;;;;;;12.10;7.15;;;;;;;7.71;90.40;100630.41;5003565;28;20073;-63
2021/10/26 06:58:10;;;;;;;16.30;7.57;;;;;;;7.61;91.30;100632.91;4999394;28;20166;-60
2021/10/26 07:00:55;;;;;;;16.02;8.65;;;;;;;7.77;90.71;100637.94;4996201;28;20132;-63
2021/10/26 07:03:41;;;;;;;14.95;8.00;;;;;;;7.75;90.59;100638.03;5000399;28;20103;-62
2021/10/26 07:06:26;;;;;;;13.23;8.00;;;;;;;7.86;89.91;100643.44;5000558;28;20511;-63
2021/10/26 07:09:12;;;;;;;14.32;9.02;;;;;;;7.92;90.00;100637.59;4998342;28;20057;-62
2021/10/26 07:11:57;;;;;;;13.57;8.63;;;;;;;8.11;88.59;100644.22;5000170;28;20139;-62
2021/10/26 07:14:42;;;;;;;16.70;9.32;;;;;;;8.11;87.96;100642.41;5000334;28;20101;-61
2021/10/26 07:17:26;;;;;;;13.23;7.75;;;;;;;8.17;88.23;100651.78;5001642;28;20091;-62
2021/10/26 07:20:14;;;;;;;13.77;7.93;;;;;;;8.29;87.14;100647.28;4998018;28;20061;-62
2021/10/26 07:22:59;;;;;;;14.80;8.02;;;;;;;8.36;86.73;100640.50;5005104;28;20635;-63
2021/10/26 07:25:45;;;;;;;9.98;6.93;;;;;;;8.39;87.26;100649.13;5010582;28;20057;-62
2021/10/26 07:28:30;;;;;;;;;;;;;;;8.46;85.64;100652.19;4999446;28;20135;-63
2021/10/26 07:31:15;;;;;;;14.10;7.53;;;;;;;8.45;86.55;100654.03;5000473;28;19928;-63
2021/10/26 07:34:01;;;;;;;14.68;8.43;;;;;;;8.45;86.99;100655.84;4999830;28;20130;-61
2021/10/26 07:36:47;;;;;;;15.05;8.73;;;;;;;8.49;86.86;100650.13;5002294;28;20056;-62
2021/10/26 07:39:44;;;;;;;13.75;7.20;;;;;;;8.55;87.14;100656.84;4997241;28;20054;-63
2021/10/26 07:42:31;;;;;;;12.82;7.70;;;;;;;8.65;86.52;100657.81;4998731;28;20524;-63
2021/10/26 07:45:16;;;;;;;12.40;7.65;;;;;;;9.00;84.67;100663.00;5007490;28;20057;-62
2021/10/26 07:48:01;;;;;;;11.00;6.63;;;;;;;8.93;85.82;100664.47;5010817;28;20088;-61
2021/10/26 07:50:47;;;;;;;13.70;8.67;;;;;;;8.99;85.79;100663.97;4997679;28;20180;-62
2021/10/26 07:53:33;;;;;;;16.75;9.13;;;;;;;9.07;85.15;100661.53;5008434;28;20160;-63
2021/10/26 07:56:19;;;;;;;15.60;8.07;;;;;;;8.99;86.04;100672.00;5010270;28;20058;-64
2021/10/26 07:59:06;;;;;;;14.27;7.95;;;;;;;9.21;85.13;100664.91;5007344;28;20471;-63
2021/10/26 08:01:51;;;;;;;15.77;8.15;;;;;;;9.26;85.35;100666.25;4997866;28;20412;-63
2021/10/26 08:04:37;;;;;;;14.40;7.88;;;;;;;9.30;85.64;100665.00;5005542;28;20049;-64
2021/10/26 08:07:23;;;;;;;15.57;8.20;;;;;;;9.50;83.61;100658.03;5002660;28;20060;-63
2021/10/26 08:10:08;;;;;;;13.90;7.68;;;;;;;9.32;85.22;100664.88;5001087;28;20436;-62
2021/10/26 08:12:54;;;;;;;18.00;8.25;;;;;;;9.28;85.69;100661.59;5001063;28;20523;-63
2021/10/26 08:15:41;;;;;;;13.48;7.72;;;;;;;9.30;84.62;100669.50;5002424;28;21390;-62
2021/10/26 08:18:28;;;;;;;13.35;8.38;;;;;;;9.18;85.12;100657.13;5005929;28;20530;-62
2021/10/26 08:21:14;;;;;;;13.88;8.38;;;;;;;9.21;85.48;100660.41;5003365;28;20231;-63
2021/10/26 08:24:01;;;;;;;15.68;9.15;;;;;;;9.25;85.42;100658.34;4999820;28;20084;-63
2021/10/26 08:26:55;;;;;;;17.13;8.13;;;;;;;9.32;85.11;100662.19;5012505;28;20416;-63
2021/10/26 08:29:46;;;;;;;13.05;7.10;;;;;;;9.30;85.61;100665.00;5008010;28;20053;-63
2021/10/26 08:35:40;;;;;;;16.38;8.80;;;;;;;9.52;84.90;100669.44;5005945;28;20084;-62
2021/10/26 08:38:26;;;;;;;16.20;9.25;;;;;;;9.72;84.12;100670.47;5004570;28;20045;-63
2021/10/26 08:41:12;;;;;;;14.45;7.93;;;;;;;9.72;84.09;100667.81;4998994;28;20708;-62
2021/10/26 08:43:57;;;;;;;20.90;9.43;;;;;;;9.70;83.61;100671.56;4999862;28;20062;-62
2021/10/26 08:46:42;;;;;;;12.80;8.07;;;;;;;9.75;83.07;100672.06;5004437;28;20060;-62
2021/10/26 08:49:29;;;;;;;16.07;8.80;;;;;;;10.09;81.89;100678.94;5003609;28;20117;-61
2021/10/26 08:52:14;;;;;;;16.98;7.60;;;;;;;10.57;81.09;100674.91;5002907;28;20394;-62
2021/10/26 08:55:00;;;;;;;12.85;7.38;;;;;;;10.68;80.02;100670.28;4997485;28;20077;-64
2021/10/26 08:57:46;;;;;;;16.40;7.27;;;;;;;10.99;79.33;100663.03;5002193;28;20056;-63
2021/10/26 09:00:31;;;;;;;15.35;7.70;;;;;;;11.02;79.18;100667.31;5011362;28;20057;-63
2021/10/26 09:03:18;;;;;;;11.38;7.13;;;;;;;11.19;78.87;100668.47;5011508;28;20123;-62
2021/10/26 09:06:05;;;;;;;15.15;7.78;;;;;;;11.09;77.70;100663.91;5006037;28;20428;-63
2021/10/26 09:08:54;;;;;;;11.23;6.78;;;;;;;10.89;79.57;100677.41;5002686;28;20064;-64
2021/10/26 09:16:39;;;;;;;13.82;7.10;;;;;;;11.01;79.08;100676.31;5004132;28;20151;-62
2021/10/26 09:18:09;;;;;;;12.65;7.10;;;;;;;10.99;80.41;100687.22;5009437;28;20530;-62
2021/10/26 09:20:54;;;;;;;10.23;7.15;;;;;;;11.10;78.89;100671.00;5004471;28;20135;-62
2021/10/26 09:23:48;;;;;;;13.55;6.80;;;;;;;11.37;78.23;100677.59;5004930;28;20049;-62
2021/10/26 09:26:45;;;;;;;11.55;7.50;;;;;;;11.26;78.84;100675.84;4999293;28;20073;-64
2021/10/26 09:29:43;;;;;;;13.05;6.72;;;;;;;11.37;79.23;100683.81;5003847;28;20416;-64
2021/10/26 09:32:34;;;;;;;9.35;6.10;;;;;;;11.38;78.50;100682.81;5003256;28;20520;-65
2021/10/26 09:35:20;;;;;;;12.88;6.90;;;;;;;11.77;76.88;100680.16;4997475;28;20061;-62
2021/10/26 09:38:05;;;;;;;15.73;7.75;;;;;;;11.56;76.82;100682.13;5002041;28;20120;-64
2021/10/26 09:40:52;;;;;;;10.88;6.53;;;;;;;11.66;77.77;100682.97;5007987;28;20092;-62
2021/10/26 09:43:37;;;;;;;;;;;;;;;11.76;77.09;100677.63;5002296;28;20212;-61
2021/10/26 09:46:24;;;;;;;14.68;6.40;;;;;;;12.04;76.26;100675.94;5002956;28;20059;-63
2021/10/26 09:49:23;;;;;;;12.00;7.25;;;;;;;12.04;75.70;100675.94;4997148;28;20061;-65
2021/10/26 09:52:17;;;;;;;18.15;7.43;;;;;;;12.08;76.29;100677.38;5010131;28;20065;-62
2021/10/26 09:55:13;;;;;;;10.95;6.80;;;;;;;12.22;75.31;100679.59;5006770;28;20057;-63
2021/10/26 09:58:01;;;;;;;11.43;6.57;;;;;;;12.54;73.84;100669.31;5011613;28;20519;-63
2021/10/26 10:00:50;;;;;;;12.82;6.15;;;;;;;12.80;73.84;100679.44;5005576;28;20061;-63
2021/10/26 10:03:36;;;;;;;9.48;6.03;;;;;;;12.99;71.81;100668.56;5012160;28;20189;-61
2021/10/26 10:06:21;;;;;;;10.57;5.67;;;;;;;12.86;72.62;100668.06;5012095;28;20068;-64
2021/10/26 10:09:19;;;;;;;12.25;6.78;;;;;;;12.41;74.04;100663.41;5006445;28;20144;-63
2021/10/26 10:12:07;;;;;;;10.30;6.93;;;;;;;12.34;74.38;100672.22;5012860;28;20069;-64
2021/10/26 10:14:54;;;;;;;9.65;6.90;;;;;;;12.45;74.73;100675.59;5009825;28;20060;-62
2021/10/26 10:17:40;;;;;;;11.27;7.65;;;;;;;12.15;74.99;100675.78;5010485;28;20507;-63
2021/10/26 10:20:26;;;;;;;10.80;6.50;;;;;;;12.55;74.40;100672.88;5008609;28;20523;-62
2021/10/26 10:23:12;;;;;;;13.27;6.90;;;;;;;12.78;73.36;100673.34;5012223;28;20116;-63
2021/10/26 10:25:59;;;;;;;7.93;5.45;;;;;;;13.17;71.87;100674.88;5004597;28;20143;-64
2021/10/26 10:28:48;;;;;;;12.18;6.45;;;;;;;13.20;71.87;100670.19;5012429;28;20128;-64
2021/10/26 10:31:35;;;;;;;12.05;7.20;;;;;;;13.21;71.55;100663.81;5012031;28;20061;-63
2021/10/26 10:34:22;;;;;;;10.25;6.75;;;;;;;13.32;71.51;100672.53;5012308;28;20142;-63
2021/10/26 10:37:07;;;;;;;10.38;6.25;;;;;;;13.76;68.78;100669.97;5012067;28;20060;-64
2021/10/26 10:39:56;;;;;;;11.95;6.20;;;;;;;13.77;69.92;100679.75;5011615;28;20411;-62
2021/10/26 10:42:45;;;;;;;12.40;6.35;;;;;;;14.04;68.76;100676.09;5012111;28;20127;-62
2021/10/26 10:45:34;;;;;;;9.68;5.68;;;;;;;14.18;68.60;100677.38;5010415;28;20061;-63
2021/10/26 10:48:28;;;;;;;11.45;5.70;;;;;;;14.09;69.90;100676.50;5007500;28;20096;-63
2021/10/26 10:51:14;;;;;;;10.63;5.43;;;;;;;14.22;68.75;100682.31;5011676;28;20512;-63
2021/10/26 10:54:00;;;;;;;8.82;5.97;;;;;;;14.11;68.66;100693.38;5011793;28;20419;-62
2021/10/26 10:57:15;;;;;;;12.85;5.90;;;;;;;14.12;68.24;100673.47;5005858;28;20565;-64
2021/10/26 11:00:05;;;;;;;8.85;5.07;;;;;;;14.29;68.17;100675.28;5007328;28;20416;-62
2021/10/26 11:02:52;;;;;;;13.30;6.10;;;;;;;13.80;69.76;100674.03;5011437;28;20412;-63
2021/10/26 11:05:44;;;;;;;10.88;6.10;;;;;;;13.81;70.08;100664.09;5011532;28;20530;-62
2021/10/26 11:08:43;;;;;;;9.55;5.68;;;;;;;13.84;70.27;100669.16;5011321;28;20045;-62
2021/10/26 11:11:28;;;;;;;12.38;6.53;;;;;;;14.13;68.10;100674.31;5008788;28;20208;-62
2021/10/26 11:14:17;;;;;;;10.45;6.55;;;;;;;14.20;67.82;100675.38;5011989;28;20056;-62
2021/10/26 11:17:02;;;;;;;11.88;6.57;;;;;;;14.09;67.75;100671.09;5008988;28;20053;-64
2021/10/26 11:19:58;;;;;;;12.02;7.25;;;;;;;13.68;69.45;100662.63;5004622;28;20049;-63
2021/10/26 11:22:52;;;;;;;13.50;7.32;;;;;;;13.63;69.69;100659.56;5005303;28;20084;-63
2021/10/26 11:25:38;;;;;;;20.20;12.50;;;;;;;13.80;69.17;100673.19;5003916;28;20432;-63
2021/10/26 11:28:42;;;;;;;38.47;25.33;;;;;;;13.91;68.75;100663.00;5000177;28;20132;-63
2021/10/26 11:31:41;;;;;;;29.85;17.38;;;;;;;13.73;69.84;100665.72;5004360;28;20424;-63
2021/10/26 11:34:27;;;;;;;20.77;13.68;;;;;;;13.94;69.11;100664.53;5008735;28;20061;-64
2021/10/26 11:37:13;;;;;;;27.27;18.50;;;;;;;13.80;70.01;100673.19;5016623;22;20200;-66
2021/10/26 11:40:07;;;;;;;18.17;10.45;;;;;;;14.00;69.30;100669.31;4992054;28;20523;-64
2021/10/26 11:42:53;;;;;;;13.40;8.57;;;;;;;13.87;70.11;100666.19;4992483;28;20627;-68
2021/10/26 11:45:38;;;;;;;12.55;7.93;;;;;;;13.69;69.65;100656.22;4983670;28;20515;-67
2021/10/26 11:48:43;;;;;;;11.77;6.18;;;;;;;13.43;71.64;100660.69;4984767;28;20152;-64
2021/10/26 11:51:29;;;;;;;13.18;6.78;;;;;;;13.95;69.32;100644.66;4973134;28;20070;-65
2021/10/26 11:54:17;;;;;;;14.13;7.05;;;;;;;14.04;69.17;100649.09;4972874;28;20515;-66
2021/10/26 11:57:05;;;;;;;14.18;6.60;;;;;;;14.58;67.82;100647.16;4972887;28;20065;-65
2021/10/26 11:59:52;;;;;;;14.90;9.80;;;;;;;14.87;65.52;100639.53;4973150;28;20110;-65
2021/10/26 12:02:37;;;;;;;9.43;6.20;;;;;;;14.56;66.11;100641.03;4973126;28;20058;-67
2021/10/26 12:05:22;;;;;;;11.00;6.95;;;;;;;14.66;65.96;100641.78;4972823;28;20078;-64
2021/10/26 12:08:07;;;;;;;14.20;6.45;;;;;;;14.47;65.93;100650.13;4972919;28;20436;-66
2021/10/26 12:11:05;;;;;;;12.18;7.63;;;;;;;14.59;66.48;100647.00;4975143;28;20064;-65
2021/10/26 12:14:11;;;;;;;12.65;5.72;;;;;;;14.18;66.61;100658.50;4991899;28;20100;-67
2021/10/26 12:17:07;;;;;;;10.10;5.60;;;;;;;13.66;68.65;100661.94;4991926;28;20057;-64
2021/10/26 12:20:00;;;;;;;11.07;7.18;;;;;;;13.99;68.20;100662.25;4991279;28;20504;-66
2021/10/26 12:22:46;;;;;;;8.85;5.95;;;;;;;13.70;69.21;100666.00;4983311;28;20077;-66
2021/10/26 12:25:42;;;;;;;10.10;5.82;;;;;;;13.25;71.53;100662.50;4992075;28;20060;-66
2021/10/26 12:28:27;;;;;;;8.40;5.28;;;;;;;12.91;72.75;100655.00;4992261;28;20058;-64
2021/10/26 12:31:14;;;;;;;9.40;5.68;;;;;;;12.71;74.01;100659.63;4991853;28;20057;-67
2021/10/26 12:34:00;;;;;;;10.90;6.20;;;;;;;12.74;74.16;100663.88;4992381;28;20062;-65
2021/10/26 12:36:45;;;;;;;11.60;4.60;;;;;;;12.66;74.57;100655.66;4991647;28;20053;-65
2021/10/26 12:39:30;;;;;;;9.20;5.88;;;;;;;12.54;74.33;100668.44;4992044;28;20204;-65
2021/10/26 12:42:34;;;;;;;11.32;6.50;;;;;;;12.55;74.94;100664.78;4995817;28;20072;-66
2021/10/26 12:45:19;;;;;;;10.85;6.50;;;;;;;12.71;74.87;100667.69;4995450;28;20523;-65
2021/10/26 12:48:07;;;;;;;10.52;5.47;;;;;;;12.83;74.42;100657.59;4995113;28;20069;-63
2021/10/26 12:50:56;;;;;;;12.82;7.15;;;;;;;13.07;72.27;100649.81;4995537;28;20057;-64
2021/10/26 12:53:42;;;;;;;8.80;5.60;;;;;;;13.22;71.74;100660.94;4995613;28;20432;-67
2021/10/26 12:56:29;;;;;;;11.48;6.18;;;;;;;13.30;72.20;100661.06;4995257;28;20427;-65
2021/10/26 12:59:16;;;;;;;10.95;5.68;;;;;;;13.64;70.65;100645.06;4995483;28;20093;-66
2021/10/26 13:02:04;;;;;;;9.75;6.22;;;;;;;13.71;70.53;100650.66;4991468;28;20062;-64